Time;durP1;ratioP1;P1;durP2;ratioP2;P2;SDS_P1;SDS_P2;PMS_P1;PMS_P2;Temp;Humidity;BMP_temperature;BMP_pressure;BME280_temperature;BME280_humidity;BME280_pressure;Samples;Min_cycle;Max_cycle;Signal;HPM_P1;HPM_P2
2021/05/20 00:02:05;;;;;;;;;;;11.60;99.20;;;;;;5058899;28;19913;-82
2021/05/20 00:04:31;;;;;;;;;;;11.60;98.90;;;;;;5055733;28;20441;-84
2021/05/20 00:06:57;;;;;;;;;;;11.60;98.90;;;;;;5054776;28;19909;-82
2021/05/20 00:09:22;;;;;;;;;;;11.60;98.90;;;;;;5054032;28;20084;-83
2021/05/20 00:11:48;;;;;;;;;;;11.50;99.10;;;;;;5054510;28;20012;-83
2021/05/20 00:14:13;;;;;;;;;;;11.50;99.10;;;;;;5055342;28;19909;-84
2021/05/20 00:16:39;;;;;;;;;;;11.50;99.30;;;;;;5053875;28;20281;-82
2021/05/20 00:19:04;;;;;;;;;;;11.40;99.30;;;;;;5057344;28;19960;-83
2021/05/20 00:21:30;;;;;;;;;;;11.40;99.30;;;;;;5056948;28;19909;-83
2021/05/20 00:23:56;;;;;;;;;;;11.30;99.50;;;;;;5057100;28;19916;-84
2021/05/20 00:26:21;;;;;;;;;;;11.30;99.40;;;;;;5057007;28;19962;-82
2021/05/20 00:28:47;;;;;;;;;;;11.30;99.50;;;;;;5056099;28;19944;-83
2021/05/20 00:31:12;;;;;;;;;;;11.40;99.70;;;;;;5055773;28;19909;-83
2021/05/20 00:33:38;;;;;;;;;;;11.40;99.30;;;;;;5057639;28;19916;-83
2021/05/20 00:36:05;;;;;;;;;;;11.30;99.60;;;;;;5057475;28;19913;-82
2021/05/20 00:38:30;;;;;;;;;;;11.30;99.40;;;;;;5055987;28;20366;-83
2021/05/20 00:41:02;;;;;;;;;;;11.30;99.60;;;;;;5055639;28;19916;-84
2021/05/20 00:43:28;;;;;;;;;;;11.20;99.60;;;;;;5056512;28;19909;-82
2021/05/20 00:45:54;;;;;;;;;;;11.20;99.80;;;;;;5057338;28;20331;-82
2021/05/20 00:48:19;;;;;;;;;;;11.20;99.70;;;;;;5055578;28;19960;-82
2021/05/20 00:50:45;;;;;;;;;;;11.30;99.60;;;;;;5055203;28;19959;-82
2021/05/20 00:53:12;;;;;;;;;;;11.30;99.40;;;;;;5055991;28;20392;-83
2021/05/20 00:55:38;;;;;;;;;;;11.20;99.50;;;;;;5055631;28;19916;-82
2021/05/20 00:58:05;;;;;;;;;;;11.10;99.50;;;;;;5055761;28;19909;-82
2021/05/20 01:00:30;;;;;;;;;;;11.00;99.60;;;;;;5054932;28;20293;-84
2021/05/20 01:02:56;;;;;;;;;;;10.90;99.60;;;;;;5057015;28;19927;-82
2021/05/20 01:05:21;;;;;;;;;;;10.90;99.70;;;;;;5055754;28;19909;-82
2021/05/20 01:07:47;;;;;;;;;;;10.80;99.90;;;;;;5055728;28;19944;-82
2021/05/20 01:10:12;;;;;;;;;;;10.80;99.90;;;;;;5055357;28;19956;-82
2021/05/20 01:12:38;;;;;;;;;;;10.80;99.90;;;;;;5056466;28;20024;-82
2021/05/20 01:15:05;;;;;;;;;;;10.70;99.90;;;;;;5054985;28;19913;-82
2021/05/20 01:17:31;;;;;;;;;;;10.80;99.90;;;;;;5055767;28;19908;-83
2021/05/20 01:19:56;;;;;;;;;;;10.80;99.90;;;;;;5057952;28;19909;-82
2021/05/20 01:22:22;;;;;;;;;;;10.90;99.90;;;;;;5056708;28;19916;-82
2021/05/20 01:24:48;;;;;;;;;;;11.00;99.90;;;;;;5056976;28;19916;-83
2021/05/20 01:27:14;;;;;;;;;;;10.90;99.80;;;;;;5058429;28;20262;-84
2021/05/20 01:29:41;;;;;;;;;;;10.80;99.80;;;;;;5055341;28;19909;-84
2021/05/20 01:32:06;;;;;;;;;;;10.80;99.70;;;;;;5058058;28;19912;-84
2021/05/20 01:34:33;;;;;;;;;;;10.70;99.80;;;;;;5056828;28;19909;-84
2021/05/20 01:36:59;;;;;;;;;;;10.60;99.80;;;;;;5056045;28;19908;-83
2021/05/20 01:39:25;;;;;;;;;;;10.60;99.90;;;;;;5055458;28;19921;-83
2021/05/20 01:41:51;;;;;;;;;;;10.60;99.90;;;;;;5056223;28;20300;-83
2021/05/20 01:44:19;;;;;;;;;;;10.50;99.90;;;;;;5058195;28;19912;-83
2021/05/20 01:46:44;;;;;;;;;;;10.50;99.90;;;;;;5056965;28;19916;-82
2021/05/20 01:49:10;;;;;;;;;;;10.50;99.90;;;;;;5056247;28;19909;-83
2021/05/20 01:51:36;;;;;;;;;;;10.50;99.90;;;;;;5057250;28;20401;-84
2021/05/20 01:54:02;;;;;;;;;;;10.60;99.90;;;;;;5056430;28;19916;-85
2021/05/20 01:56:28;;;;;;;;;;;10.60;99.90;;;;;;5057822;28;19913;-82
2021/05/20 01:58:53;;;;;;;;;;;10.60;99.90;;;;;;5056861;28;19909;-87
2021/05/20 02:01:19;;;;;;;;;;;10.50;99.90;;;;;;5055243;28;19909;-83
2021/05/20 02:03:45;;;;;;;;;;;10.40;99.90;;;;;;5056139;28;19999;-82
2021/05/20 02:06:10;;;;;;;;;;;10.30;99.90;;;;;;5055697;28;20285;-85
2021/05/20 02:08:37;;;;;;;;;;;10.40;99.90;;;;;;5055534;28;19908;-82
2021/05/20 02:11:03;;;;;;;;;;;10.40;99.90;;;;;;5055512;28;19909;-85
2021/05/20 02:13:28;;;;;;;;;;;10.40;99.90;;;;;;5056723;28;20352;-84
2021/05/20 02:15:54;;;;;;;;;;;10.50;99.90;;;;;;5055865;28;19912;-83
2021/05/20 02:18:19;;;;;;;;;;;10.50;99.90;;;;;;5055342;28;20316;-83
2021/05/20 02:20:45;;;;;;;;;;;10.50;99.90;;;;;;5052537;28;19913;-82
2021/05/20 02:23:11;;;;;;;;;;;10.40;99.90;;;;;;5052388;28;19916;-83
2021/05/20 02:25:37;;;;;;;;;;;10.40;99.90;;;;;;5053765;28;19913;-85
2021/05/20 02:28:02;;;;;;;;;;;10.40;99.90;;;;;;5057254;28;20009;-84
2021/05/20 02:30:28;;;;;;;;;;;10.30;99.90;;;;;;5055663;28;19915;-83
2021/05/20 02:32:53;;;;;;;;;;;10.30;99.90;;;;;;5056151;28;19916;-82
2021/05/20 02:35:20;;;;;;;;;;;10.30;99.90;;;;;;5057711;28;19960;-82
2021/05/20 02:37:47;;;;;;;;;;;10.20;99.90;;;;;;5056533;28;19913;-82
2021/05/20 02:40:13;;;;;;;;;;;10.10;99.90;;;;;;5057212;28;19964;-83
2021/05/20 02:42:39;;;;;;;;;;;10.10;99.90;;;;;;5054912;28;19940;-82
2021/05/20 02:45:06;;;;;;;;;;;10.00;99.90;;;;;;5056747;28;19909;-83
2021/05/20 02:47:31;;;;;;;;;;;10.10;99.90;;;;;;5056881;28;19916;-84
2021/05/20 02:49:57;;;;;;;;;;;10.10;99.90;;;;;;5057491;28;19912;-85
2021/05/20 02:52:22;;;;;;;;;;;10.00;99.90;;;;;;5056770;28;19919;-83
2021/05/20 02:54:48;;;;;;;;;;;10.00;99.90;;;;;;5056154;28;19920;-82
2021/05/20 02:57:13;;;;;;;;;;;9.90;99.90;;;;;;5057619;28;19909;-84
2021/05/20 02:59:39;;;;;;;;;;;9.80;99.90;;;;;;5056216;28;19952;-84
2021/05/20 03:02:06;;;;;;;;;;;9.80;99.90;;;;;;5056641;28;19913;-83
2021/05/20 03:04:32;;;;;;;;;;;9.90;99.90;;;;;;5054982;28;19924;-82
2021/05/20 03:06:58;;;;;;;;;;;9.90;99.80;;;;;;5055869;28;19915;-82
2021/05/20 03:09:24;;;;;;;;;;;9.80;99.70;;;;;;5055339;28;20389;-84
2021/05/20 03:11:49;;;;;;;;;;;9.70;99.90;;;;;;5057252;28;20370;-85
2021/05/20 03:14:15;;;;;;;;;;;9.80;99.70;;;;;;5056461;28;20295;-82
2021/05/20 03:16:41;;;;;;;;;;;9.70;99.70;;;;;;5055519;28;20262;-82
2021/05/20 03:19:06;;;;;;;;;;;9.70;99.90;;;;;;5056889;28;19910;-83
2021/05/20 03:21:32;;;;;;;;;;;9.80;99.70;;;;;;5057640;28;19932;-84
2021/05/20 03:23:57;;;;;;;;;;;9.80;99.80;;;;;;5057567;28;20312;-82
2021/05/20 03:26:23;;;;;;;;;;;9.90;99.70;;;;;;5057163;28;19908;-82
2021/05/20 03:28:48;;;;;;;;;;;9.90;99.40;;;;;;5056014;28;19934;-86
2021/05/20 03:31:14;;;;;;;;;;;9.80;99.50;;;;;;5053796;28;19908;-84
2021/05/20 03:33:41;;;;;;;;;;;9.70;99.70;;;;;;5054326;28;20003;-83
2021/05/20 03:36:07;;;;;;;;;;;9.70;99.50;;;;;;5053979;28;19919;-83
2021/05/20 03:38:33;;;;;;;;;;;9.70;99.80;;;;;;5054624;28;19912;-84
2021/05/20 03:41:00;;;;;;;;;;;9.70;99.30;;;;;;5056801;28;20301;-85
2021/05/20 03:43:26;;;;;;;;;;;9.60;99.50;;;;;;5057859;28;19913;-84
2021/05/20 03:45:51;;;;;;;;;;;9.50;99.60;;;;;;5055866;28;19909;-83
2021/05/20 03:48:17;;;;;;;;;;;9.50;99.90;;;;;;5055313;28;19960;-83
2021/05/20 03:50:42;;;;;;;;;;;9.50;99.90;;;;;;5053424;28;20293;-84
2021/05/20 03:53:08;;;;;;;;;;;9.50;99.80;;;;;;5054957;28;19909;-82
2021/05/20 03:55:33;;;;;;;;;;;9.60;99.90;;;;;;5059002;28;19919;-83
2021/05/20 03:57:59;;;;;;;;;;;9.60;99.90;;;;;;5058070;28;19916;-83
2021/05/20 04:00:24;;;;;;;;;;;9.60;99.90;;;;;;5057416;28;20405;-83
2021/05/20 04:02:50;;;;;;;;;;;9.70;99.90;;;;;;5058652;28;20171;-83
2021/05/20 04:05:15;;;;;;;;;;;9.70;99.90;;;;;;5075652;28;19912;-84
2021/05/20 04:07:41;;;;;;;;;;;9.70;99.90;;;;;;5058151;28;20370;-84
2021/05/20 04:10:07;;;;;;;;;;;9.80;99.90;;;;;;5057330;28;19979;-84
2021/05/20 04:12:33;;;;;;;;;;;9.70;99.90;;;;;;5059169;28;19909;-85
2021/05/20 04:14:58;;;;;;;;;;;9.80;99.90;;;;;;5059124;28;19980;-82
2021/05/20 04:17:24;;;;;;;;;;;9.90;99.90;;;;;;5059247;28;19935;-82
2021/05/20 04:19:49;;;;;;;;;;;10.00;99.90;;;;;;5056659;28;19931;-83
2021/05/20 04:22:15;;;;;;;;;;;10.10;99.90;;;;;;5058219;28;19963;-83
2021/05/20 04:24:40;;;;;;;;;;;10.10;99.90;;;;;;5057715;28;20304;-83
2021/05/20 04:27:06;;;;;;;;;;;10.20;99.90;;;;;;5057926;28;19935;-83
2021/05/20 04:29:31;;;;;;;;;;;10.20;99.90;;;;;;5059209;28;19931;-84
2021/05/20 04:31:57;;;;;;;;;;;10.30;99.90;;;;;;5057565;28;19909;-84
2021/05/20 04:34:22;;;;;;;;;;;10.30;99.90;;;;;;5059515;28;19916;-83
2021/05/20 04:36:48;;;;;;;;;;;10.30;99.90;;;;;;5058133;28;20262;-83
2021/05/20 04:39:13;;;;;;;;;;;10.30;99.90;;;;;;5056928;28;19970;-85
2021/05/20 04:41:39;;;;;;;;;;;10.30;99.90;;;;;;5057733;28;19915;-83
2021/05/20 04:44:05;;;;;;;;;;;10.20;99.90;;;;;;5058321;28;19913;-83
2021/05/20 04:46:30;;;;;;;;;;;10.30;99.90;;;;;;5058895;28;19909;-83
2021/05/20 04:48:56;;;;;;;;;;;10.20;99.90;;;;;;5057911;28;19932;-85
2021/05/20 04:51:22;;;;;;;;;;;10.20;99.90;;;;;;5058034;28;20012;-82
2021/05/20 04:53:49;;;;;;;;;;;10.20;99.90;;;;;;5058999;28;19916;-84
2021/05/20 04:56:22;;;;;;;;;;;10.30;99.90;;;;;;5059594;28;19921;-84
2021/05/20 04:58:47;;;;;;;;;;;10.30;99.90;;;;;;5059208;28;19954;-86
2021/05/20 05:01:13;;;;;;;;;;;10.30;99.90;;;;;;5059584;28;19909;-84
2021/05/20 05:03:47;;;;;;;;;;;10.30;99.90;;;;;;5061021;28;19916;-86
2021/05/20 05:06:13;;;;;;;;;;;10.30;99.90;;;;;;5059326;28;19968;-86
2021/05/20 05:08:38;;;;;;;;;;;10.40;99.90;;;;;;5059961;28;19944;-87
2021/05/20 05:11:04;;;;;;;;;;;10.40;99.90;;;;;;5060598;28;20369;-86
2021/05/20 05:13:29;;;;;;;;;;;10.30;99.90;;;;;;5062205;28;19909;-86
2021/05/20 05:15:56;;;;;;;;;;;10.30;99.90;;;;;;5063699;28;19939;-85
2021/05/20 05:18:22;;;;;;;;;;;10.40;99.90;;;;;;5063497;28;19909;-86
2021/05/20 05:20:56;;;;;;;;;;;10.30;99.90;;;;;;5062629;28;19930;-87
2021/05/20 05:23:27;;;;;;;;;;;10.40;99.90;;;;;;5060521;28;19919;-87
2021/05/20 05:25:57;;;;;;;;;;;10.30;99.90;;;;;;5060802;28;19916;-85
2021/05/20 05:28:24;;;;;;;;;;;10.40;99.90;;;;;;5056635;28;20011;-86
2021/05/20 05:30:51;;;;;;;;;;;10.50;99.90;;;;;;5036038;28;19919;-85
2021/05/20 05:33:21;;;;;;;;;;;10.40;99.90;;;;;;5053878;28;20357;-86
2021/05/20 05:35:56;;;;;;;;;;;10.40;99.90;;;;;;5054687;28;20361;-87
2021/05/20 05:38:22;;;;;;;;;;;10.40;99.90;;;;;;5081573;22;20318;-86
2021/05/20 05:40:47;;;;;;;;;;;10.40;99.90;;;;;;5073294;28;19943;-86
2021/05/20 05:43:15;;;;;;;;;;;10.40;99.90;;;;;;5074659;28;19908;-86
2021/05/20 05:46:03;;;;;;;;;;;10.50;99.90;;;;;;5073407;28;19958;-86
2021/05/20 05:48:28;;;;;;;;;;;10.50;99.90;;;;;;5017220;28;19944;-86
2021/05/20 05:50:56;;;;;;;;;;;10.50;99.90;;;;;;5068596;28;20328;-86
2021/05/20 05:53:22;;;;;;;;;;;10.50;99.90;;;;;;5073100;28;19913;-87
2021/05/20 05:55:48;;;;;;;;;;;10.50;99.90;;;;;;5073208;28;19962;-86
2021/05/20 05:58:13;;;;;;;;;;;10.60;99.90;;;;;;5074330;28;19962;-87
2021/05/20 06:00:39;;;;;;;;;;;10.50;99.90;;;;;;5073156;28;20297;-86
2021/05/20 06:03:04;;;;;;;;;;;10.50;99.90;;;;;;5072983;28;19916;-86
2021/05/20 06:05:30;;;;;;;;;;;10.50;99.90;;;;;;5075490;28;20321;-86
2021/05/20 06:07:55;;;;;;;;;;;10.60;99.90;;;;;;5074140;28;19908;-87
2021/05/20 06:10:23;;;;;;;;;;;10.60;99.90;;;;;;5073540;28;19908;-87
2021/05/20 06:12:49;;;;;;;;;;;10.60;99.90;;;;;;5072826;28;20284;-87
2021/05/20 06:15:14;;;;;;;;;;;10.50;99.90;;;;;;5072717;28;20381;-87
2021/05/20 06:17:40;;;;;;;;;;;10.50;99.90;;;;;;5072777;28;19931;-87
2021/05/20 06:20:06;;;;;;;;;;;10.50;99.90;;;;;;5072324;28;19924;-87
2021/05/20 06:22:32;;;;;;;;;;;10.50;99.90;;;;;;5072626;28;19915;-87
2021/05/20 06:24:57;;;;;;;;;;;10.50;99.90;;;;;;5073675;28;19909;-86
2021/05/20 06:27:26;;;;;;;;;;;10.60;99.90;;;;;;5072343;28;19915;-87
2021/05/20 06:29:52;;;;;;;;;;;10.60;99.90;;;;;;5071634;28;20383;-87
2021/05/20 06:32:18;;;;;;;;;;;10.60;99.90;;;;;;5072299;28;19951;-86
2021/05/20 06:34:44;;;;;;;;;;;10.60;99.90;;;;;;5073669;28;20352;-87
2021/05/20 06:37:09;;;;;;;;;;;10.60;99.90;;;;;;5073540;28;20296;-87
2021/05/20 06:39:35;;;;;;;;;;;10.50;99.90;;;;;;5072600;28;20396;-87
2021/05/20 06:42:00;;;;;;;;;;;10.50;99.90;;;;;;5072029;28;19973;-87
2021/05/20 06:44:26;;;;;;;;;;;10.50;99.90;;;;;;5072527;28;19917;-87
2021/05/20 06:46:51;;;;;;;;;;;10.60;99.90;;;;;;5073281;28;19963;-86
2021/05/20 06:49:17;;;;;;;;;;;10.50;99.90;;;;;;5071376;28;20280;-87
2021/05/20 06:51:42;;;;;;;;;;;10.60;99.90;;;;;;5071957;28;19913;-87
2021/05/20 06:54:08;;;;;;;;;;;10.60;99.90;;;;;;5072276;28;20320;-87
2021/05/20 06:56:35;;;;;;;;;;;10.60;99.90;;;;;;5072054;28;20357;-87
2021/05/20 07:01:46;;;;;;;;;;;10.60;99.90;;;;;;5073409;28;19954;-87
2021/05/20 07:04:12;;;;;;;;;;;10.60;99.90;;;;;;5072297;28;20003;-87
2021/05/20 07:06:38;;;;;;;;;;;10.60;99.90;;;;;;5071596;28;19916;-86
2021/05/20 07:09:04;;;;;;;;;;;10.70;99.90;;;;;;5071028;28;19915;-86
2021/05/20 07:11:30;;;;;;;;;;;10.70;99.90;;;;;;5071743;28;19908;-86
2021/05/20 07:13:56;;;;;;;;;;;10.70;99.90;;;;;;5071536;28;20076;-86
2021/05/20 07:16:21;;;;;;;;;;;10.60;99.90;;;;;;5072900;28;19913;-87
2021/05/20 07:18:47;;;;;;;;;;;10.60;99.90;;;;;;5072237;28;19915;-86
2021/05/20 07:21:12;;;;;;;;;;;10.60;99.90;;;;;;5075223;28;19908;-87
2021/05/20 07:23:38;;;;;;;;;;;10.60;99.90;;;;;;5075642;28;19908;-86
2021/05/20 07:26:03;;;;;;;;;;;10.60;99.90;;;;;;5075814;28;19920;-87
2021/05/20 07:28:29;;;;;;;;;;;10.70;99.90;;;;;;5072079;28;19916;-87
2021/05/20 07:30:55;;;;;;;;;;;10.60;99.90;;;;;;5071077;28;20265;-86
2021/05/20 07:33:22;;;;;;;;;;;10.60;99.90;;;;;;5072796;28;19954;-86
2021/05/20 07:35:48;;;;;;;;;;;10.50;99.90;;;;;;5071355;28;19912;-87
2021/05/20 07:38:13;;;;;;;;;;;10.60;99.90;;;;;;5071434;28;19908;-87
2021/05/20 07:40:39;;;;;;;;;;;10.60;99.90;;;;;;5072135;28;19923;-87
2021/05/20 07:43:04;;;;;;;;;;;10.60;99.90;;;;;;5071442;28;19915;-87
2021/05/20 07:45:33;;;;;;;;;;;10.70;99.90;;;;;;5071655;28;19940;-87
2021/05/20 07:47:58;;;;;;;;;;;10.70;99.90;;;;;;5071136;28;19909;-87
2021/05/20 07:50:24;;;;;;;;;;;10.70;99.90;;;;;;5070736;28;19915;-86
2021/05/20 07:52:50;;;;;;;;;;;10.80;99.90;;;;;;5071357;28;20480;-86
2021/05/20 07:55:15;;;;;;;;;;;10.80;99.90;;;;;;5071151;28;19935;-87
2021/05/20 07:57:41;;;;;;;;;;;10.80;99.90;;;;;;5071595;28;19931;-87
2021/05/20 08:00:08;;;;;;;;;;;10.90;99.90;;;;;;5070389;28;19909;-87
2021/05/20 08:05:19;;;;;;;;;;;10.80;99.90;;;;;;5072431;28;19908;-86
2021/05/20 08:08:01;;;;;;;;;;;10.90;99.90;;;;;;5070876;28;19908;-86
2021/05/20 08:13:11;;;;;;;;;;;10.90;99.90;;;;;;5072463;28;20302;-87
2021/05/20 08:15:36;;;;;;;;;;;10.90;99.90;;;;;;5070808;28;19912;-87
2021/05/20 08:18:02;;;;;;;;;;;10.90;99.90;;;;;;5071896;28;19915;-87
2021/05/20 08:20:27;;;;;;;;;;;10.90;99.90;;;;;;5071450;28;19908;-87
2021/05/20 08:22:53;;;;;;;;;;;10.90;99.90;;;;;;5071902;28;19909;-87
2021/05/20 08:25:18;;;;;;;;;;;10.90;99.90;;;;;;5072102;28;20012;-87
2021/05/20 08:27:44;;;;;;;;;;;11.00;99.90;;;;;;5072160;28;20057;-86
2021/05/20 08:30:10;;;;;;;;;;;11.00;99.80;;;;;;5071202;28;19909;-87
2021/05/20 08:32:35;;;;;;;;;;;11.00;99.90;;;;;;5070526;28;20292;-87
2021/05/20 08:35:01;;;;;;;;;;;11.10;99.80;;;;;;5071818;28;19919;-87
2021/05/20 08:37:28;;;;;;;;;;;11.00;99.80;;;;;;5070666;28;19954;-87
2021/05/20 08:39:54;;;;;;;;;;;11.10;99.60;;;;;;5072306;28;20277;-87
2021/05/20 08:42:19;;;;;;;;;;;11.10;99.60;;;;;;5074156;28;20015;-87
2021/05/20 08:44:45;;;;;;;;;;;11.10;99.30;;;;;;5075596;28;20335;-87
2021/05/20 08:47:11;;;;;;;;;;;11.10;99.40;;;;;;5075499;28;19908;-86
2021/05/20 08:49:36;;;;;;;;;;;11.10;99.10;;;;;;5073367;28;19912;-87
2021/05/20 08:52:02;;;;;;;;;;;11.10;98.90;;;;;;5073909;28;19912;-87
2021/05/20 08:54:28;;;;;;;;;;;11.20;98.80;;;;;;5073995;28;19909;-86
2021/05/20 08:56:55;;;;;;;;;;;11.20;98.80;;;;;;5073981;28;19913;-87
2021/05/20 08:59:21;;;;;;;;;;;11.20;98.60;;;;;;5073360;28;20016;-87
2021/05/20 09:01:48;;;;;;;;;;;11.20;98.70;;;;;;5073951;28;20285;-87
2021/05/20 09:04:14;;;;;;;;;;;11.20;98.70;;;;;;5073869;28;20382;-87
2021/05/20 09:06:52;;;;;;;;;;;11.30;98.70;;;;;;5073724;28;19970;-87
2021/05/20 09:09:27;;;;;;;;;;;11.20;98.50;;;;;;5074443;28;19909;-87
2021/05/20 09:11:54;;;;;;;;;;;11.30;98.70;;;;;;5073671;28;19953;-87
2021/05/20 09:14:26;;;;;;;;;;;11.30;98.80;;;;;;5073832;28;19916;-87
2021/05/20 09:17:06;;;;;;;;;;;11.40;98.60;;;;;;5073602;28;19912;-87
2021/05/20 09:19:31;;;;;;;;;;;11.40;98.70;;;;;;5074434;28;19915;-86
2021/05/20 09:22:07;;;;;;;;;;;11.50;98.70;;;;;;5073574;28;19908;-87
2021/05/20 09:24:48;;;;;;;;;;;11.50;98.70;;;;;;5073859;28;20408;-87
2021/05/20 09:27:24;;;;;;;;;;;11.60;98.70;;;;;;5073434;28;19908;-86
2021/05/20 09:30:08;;;;;;;;;;;11.70;98.70;;;;;;5074149;28;19909;-87
2021/05/20 09:32:37;;;;;;;;;;;11.80;98.70;;;;;;5073441;28;20319;-87
2021/05/20 09:35:03;;;;;;;;;;;11.80;98.60;;;;;;5073227;28;19919;-88
2021/05/20 09:37:29;;;;;;;;;;;11.90;98.40;;;;;;5074858;28;19919;-87
2021/05/20 09:39:59;;;;;;;;;;;12.00;98.40;;;;;;5072640;28;19920;-87
2021/05/20 09:42:24;;;;;;;;;;;12.00;98.20;;;;;;5073097;28;19957;-87
2021/05/20 09:44:51;;;;;;;;;;;12.10;98.20;;;;;;5073167;28;20007;-87
2021/05/20 09:47:18;;;;;;;;;;;12.10;97.50;;;;;;5074352;28;19908;-87
2021/05/20 09:49:59;;;;;;;;;;;12.20;97.20;;;;;;5072662;28;20368;-87
2021/05/20 09:52:25;;;;;;;;;;;12.20;97.20;;;;;;5072531;28;19930;-87
2021/05/20 09:54:51;;;;;;;;;;;12.20;97.30;;;;;;5072821;28;19908;-87
2021/05/20 09:57:33;;;;;;;;;;;12.30;97.50;;;;;;5073041;28;19909;-88
2021/05/20 10:00:06;;;;;;;;;;;12.30;97.40;;;;;;5073562;28;20058;-87
2021/05/20 10:02:32;;;;;;;;;;;12.40;96.50;;;;;;5072999;28;19947;-87
2021/05/20 10:05:00;;;;;;;;;;;12.50;96.70;;;;;;5074118;28;19916;-87
2021/05/20 10:07:29;;;;;;;;;;;12.50;96.10;;;;;;5072747;28;19908;-87
2021/05/20 10:09:56;;;;;;;;;;;12.50;96.20;;;;;;5072160;28;20285;-86
2021/05/20 10:12:24;;;;;;;;;;;12.60;96.00;;;;;;5072659;28;19909;-86
2021/05/20 10:14:50;;;;;;;;;;;12.60;95.80;;;;;;5072531;28;19909;-87
2021/05/20 10:17:16;;;;;;;;;;;12.70;95.50;;;;;;5073682;28;19970;-87
2021/05/20 10:19:43;;;;;;;;;;;12.80;95.50;;;;;;5072001;28;20330;-87
2021/05/20 10:22:10;;;;;;;;;;;12.80;95.60;;;;;;5072572;28;19913;-88
2021/05/20 10:24:35;;;;;;;;;;;12.80;95.30;;;;;;5072510;28;19916;-87
2021/05/20 10:27:01;;;;;;;;;;;12.80;95.00;;;;;;5072296;28;19908;-87
2021/05/20 10:29:27;;;;;;;;;;;12.90;94.90;;;;;;5071721;28;19956;-87
2021/05/20 10:31:52;;;;;;;;;;;12.80;94.80;;;;;;5071772;28;19908;-87
2021/05/20 10:34:21;;;;;;;;;;;12.90;94.80;;;;;;5072213;28;19909;-87
2021/05/20 10:36:57;;;;;;;;;;;12.90;95.00;;;;;;5072116;28;19913;-88
2021/05/20 10:39:22;;;;;;;;;;;12.90;94.80;;;;;;5071510;28;19916;-87
2021/05/20 10:41:48;;;;;;;;;;;13.00;94.90;;;;;;5072001;28;19908;-87
2021/05/20 10:44:14;;;;;;;;;;;13.00;94.10;;;;;;5073396;28;19962;-87
2021/05/20 10:47:01;;;;;;;;;;;13.10;94.40;;;;;;5072322;28;19922;-87
2021/05/20 10:49:45;;;;;;;;;;;13.00;93.70;;;;;;5071586;28;19948;-87
2021/05/20 10:52:29;;;;;;;;;;;13.00;93.80;;;;;;5071831;28;19908;-87
2021/05/20 10:54:59;;;;;;;;;;;13.00;93.60;;;;;;5071653;28;19908;-87
2021/05/20 10:57:44;;;;;;;;;;;13.10;93.00;;;;;;5071788;28;20011;-87
2021/05/20 11:00:28;;;;;;;;;;;13.10;92.50;;;;;;5072401;28;19908;-87
2021/05/20 11:02:54;;;;;;;;;;;13.20;93.20;;;;;;5070750;28;20426;-87
2021/05/20 11:05:38;;;;;;;;;;;13.20;93.30;;;;;;5071591;28;19908;-87
2021/05/20 11:08:06;;;;;;;;;;;13.30;93.00;;;;;;5072106;28;19916;-87
2021/05/20 11:10:36;;;;;;;;;;;13.30;93.10;;;;;;5072569;28;19909;-87
2021/05/20 11:13:02;;;;;;;;;;;13.40;92.80;;;;;;5072164;28;20335;-87
2021/05/20 11:15:27;;;;;;;;;;;13.40;92.10;;;;;;5072378;28;19955;-87
2021/05/20 11:17:53;;;;;;;;;;;13.40;92.00;;;;;;5071477;28;20410;-87
2021/05/20 11:20:24;;;;;;;;;;;13.40;92.10;;;;;;5072140;28;20002;-87
2021/05/20 11:23:08;;;;;;;;;;;13.50;92.70;;;;;;5072889;28;20340;-87
2021/05/20 11:25:33;;;;;;;;;;;13.50;92.50;;;;;;5072810;28;19947;-87
2021/05/20 11:28:06;;;;;;;;;;;13.60;91.40;;;;;;5072713;28;19956;-87
2021/05/20 11:30:32;;;;;;;;;;;13.60;91.10;;;;;;5071450;28;19995;-87
2021/05/20 11:32:59;;;;;;;;;;;13.70;90.50;;;;;;5072239;28;20003;-87
2021/05/20 11:35:41;;;;;;;;;;;13.70;90.70;;;;;;5071485;28;19912;-87
2021/05/20 11:40:44;;;;;;;;;;;14.00;88.90;;;;;;5095859;22;19975;-84
2021/05/20 11:43:10;;;;;;;;;;;14.00;89.30;;;;;;5071918;28;19912;-85
2021/05/20 11:45:36;;;;;;;;;;;14.00;89.50;;;;;;5071769;28;19908;-85
2021/05/20 11:48:03;;;;;;;;;;;14.10;90.20;;;;;;5071863;28;19915;-85
2021/05/20 11:50:29;;;;;;;;;;;14.10;90.40;;;;;;5072864;28;20328;-85
2021/05/20 11:52:55;;;;;;;;;;;14.20;90.20;;;;;;5071616;28;20000;-85
2021/05/20 11:55:22;;;;;;;;;;;14.30;87.10;;;;;;5071647;28;19912;-86
2021/05/20 11:57:58;;;;;;;;;;;14.30;87.60;;;;;;5071424;28;19908;-84
2021/05/20 12:00:24;;;;;;;;;;;14.40;87.40;;;;;;5071208;28;19931;-83
2021/05/20 12:02:53;;;;;;;;;;;14.40;87.10;;;;;;5072449;28;20381;-84
2021/05/20 12:05:18;;;;;;;;;;;14.40;86.80;;;;;;5071677;28;19915;-83
2021/05/20 12:07:44;;;;;;;;;;;14.40;87.70;;;;;;5071428;28;19909;-84
2021/05/20 12:10:13;;;;;;;;;;;14.40;87.80;;;;;;5071232;28;20213;-83
2021/05/20 12:12:40;;;;;;;;;;;14.40;85.40;;;;;;5071982;28;20272;-84
2021/05/20 12:15:16;;;;;;;;;;;14.50;84.70;;;;;;5075202;28;19912;-85
2021/05/20 12:17:42;;;;;;;;;;;14.60;84.60;;;;;;5076990;28;19912;-84
2021/05/20 12:20:08;;;;;;;;;;;14.60;83.20;;;;;;5075769;28;19915;-84
2021/05/20 12:22:33;;;;;;;;;;;14.80;81.30;;;;;;5075314;28;20346;-84
2021/05/20 12:25:08;;;;;;;;;;;14.80;79.10;;;;;;5076761;28;19908;-84
2021/05/20 12:27:36;;;;;;;;;;;14.80;79.70;;;;;;5075481;28;19912;-84
2021/05/20 12:30:06;;;;;;;;;;;14.90;80.00;;;;;;5074783;28;19948;-84
2021/05/20 12:32:38;;;;;;;;;;;14.90;80.70;;;;;;5075325;28;20356;-84
2021/05/20 12:35:06;;;;;;;;;;;14.80;80.00;;;;;;5075751;28;20276;-84
2021/05/20 12:37:40;;;;;;;;;;;14.80;80.70;;;;;;5076219;28;20376;-84
2021/05/20 12:40:13;;;;;;;;;;;14.80;81.10;;;;;;5075110;28;19917;-84
2021/05/20 12:42:39;;;;;;;;;;;14.90;80.60;;;;;;5075785;28;19909;-85
2021/05/20 12:45:05;;;;;;;;;;;15.00;80.80;;;;;;5075655;28;19973;-84
2021/05/20 12:47:32;;;;;;;;;;;15.10;80.60;;;;;;5074258;28;19909;-84
2021/05/20 12:49:57;;;;;;;;;;;15.10;80.60;;;;;;5073762;28;19908;-84
2021/05/20 12:52:23;;;;;;;;;;;15.10;79.40;;;;;;5075442;28;20385;-84
2021/05/20 12:54:49;;;;;;;;;;;15.10;80.30;;;;;;5075601;28;19958;-84
2021/05/20 12:57:15;;;;;;;;;;;15.10;79.90;;;;;;5074666;28;20382;-84
2021/05/20 12:59:41;;;;;;;;;;;15.10;78.40;;;;;;5075428;28;20308;-84
2021/05/20 13:02:18;;;;;;;;;;;15.20;77.20;;;;;;5075437;28;20296;-84
2021/05/20 13:04:43;;;;;;;;;;;15.10;76.70;;;;;;5075332;28;19943;-84
2021/05/20 13:07:12;;;;;;;;;;;15.10;78.10;;;;;;5075264;28;19908;-84
2021/05/20 13:09:42;;;;;;;;;;;15.20;77.70;;;;;;5073329;28;19914;-84
2021/05/20 13:12:15;;;;;;;;;;;15.20;77.90;;;;;;5075028;28;20316;-84
2021/05/20 13:14:43;;;;;;;;;;;15.20;77.40;;;;;;5073679;28;19931;-84
2021/05/20 13:20:11;;;;;;;;;;;15.20;75.50;;;;;;5074485;28;19960;-84
2021/05/20 13:22:38;;;;;;;;;;;15.10;75.80;;;;;;5074465;28;19948;-84
2021/05/20 13:25:09;;;;;;;;;;;15.20;76.50;;;;;;5073188;28;19912;-84
2021/05/20 13:27:35;;;;;;;;;;;15.20;76.50;;;;;;5073820;28;19915;-84
2021/05/20 13:30:06;;;;;;;;;;;15.20;75.20;;;;;;5074229;28;19908;-84
2021/05/20 13:35:02;;;;;;;;;;;15.20;75.70;;;;;;5074519;28;19908;-84
2021/05/20 13:37:27;;;;;;;;;;;15.30;74.40;;;;;;5073227;28;19916;-84
2021/05/20 13:39:53;;;;;;;;;;;15.30;76.00;;;;;;5073775;28;19920;-84
2021/05/20 13:42:19;;;;;;;;;;;15.30;75.30;;;;;;5073213;28;19908;-84
2021/05/20 13:47:13;;;;;;;;;;;15.40;75.10;;;;;;5074513;28;20007;-84
2021/05/20 13:49:41;;;;;;;;;;;15.40;74.80;;;;;;5073777;28;19909;-84
2021/05/20 13:52:08;;;;;;;;;;;15.40;73.70;;;;;;5073460;28;20292;-84
2021/05/20 13:54:34;;;;;;;;;;;15.40;75.20;;;;;;5074342;28;19915;-84
2021/05/20 13:57:00;;;;;;;;;;;15.40;73.70;;;;;;5072943;28;19912;-84
2021/05/20 13:59:26;;;;;;;;;;;15.40;73.10;;;;;;5072323;28;20273;-84
2021/05/20 14:01:52;;;;;;;;;;;15.40;73.00;;;;;;5073981;28;19947;-84
2021/05/20 14:04:39;;;;;;;;;;;15.40;73.80;;;;;;5072836;28;19970;-84
2021/05/20 14:07:08;;;;;;;;;;;15.40;74.60;;;;;;5072772;28;19908;-84
2021/05/20 14:09:34;;;;;;;;;;;15.40;75.00;;;;;;5073613;28;19916;-83
2021/05/20 14:12:00;;;;;;;;;;;15.40;75.40;;;;;;5072834;28;19908;-84
2021/05/20 14:14:29;;;;;;;;;;;15.40;76.50;;;;;;5072508;28;19956;-83
2021/05/20 14:16:55;;;;;;;;;;;15.50;75.40;;;;;;5073704;28;19935;-84
2021/05/20 14:19:21;;;;;;;;;;;15.50;76.50;;;;;;5072652;28;20368;-84
2021/05/20 14:21:47;;;;;;;;;;;15.50;76.40;;;;;;5074532;28;19908;-84
2021/05/20 14:24:12;;;;;;;;;;;15.50;75.70;;;;;;5074352;28;19913;-85
2021/05/20 14:26:39;;;;;;;;;;;15.50;75.70;;;;;;5072985;28;19909;-84
2021/05/20 14:29:05;;;;;;;;;;;15.50;76.00;;;;;;5072219;28;19908;-84
2021/05/20 14:31:30;;;;;;;;;;;15.60;76.20;;;;;;5074046;28;19908;-84
2021/05/20 14:33:56;;;;;;;;;;;15.60;75.50;;;;;;5072766;28;19909;-84
2021/05/20 14:36:21;;;;;;;;;;;15.60;74.60;;;;;;5072354;28;19913;-84
2021/05/20 14:38:47;;;;;;;;;;;15.50;74.80;;;;;;5072939;28;19923;-84